Time;durP1;ratioP1;P1;durP2;ratioP2;P2;SDS_P1;SDS_P2;PMS_P1;PMS_P2;Temp;Humidity;BMP_temperature;BMP_pressure;BME280_temperature;BME280_humidity;BME280_pressure;Samples;Min_cycle;Max_cycle;Signal;HPM_P1;HPM_P2
2024/02/23 00:01:53;;;;;;;1.80;1.10;;;;;;;5.56;100.00;100949.20;105998;1263;66420;-59
2024/02/23 00:04:20;;;;;;;1.50;1.00;;;;;;;5.54;100.00;100943.71;105923;1260;71812;-59
2024/02/23 00:06:48;;;;;;;1.20;1.00;;;;;;;5.51;100.00;100943.75;106611;1256;60575;-60
2024/02/23 00:09:15;;;;;;;2.30;1.10;;;;;;;5.48;100.00;100937.52;105787;1262;60068;-59
2024/02/23 00:11:44;;;;;;;2.20;1.20;;;;;;;5.47;100.00;100933.27;105885;1263;71770;-59
2024/02/23 00:14:12;;;;;;;1.70;1.00;;;;;;;5.45;100.00;100928.83;107664;1256;67633;-58
2024/02/23 00:16:40;;;;;;;1.40;1.10;;;;;;;5.43;100.00;100922.28;106514;1260;71437;-60
2024/02/23 00:19:09;;;;;;;2.30;1.40;;;;;;;5.42;100.00;100916.23;105904;1259;59922;-60
2024/02/23 00:21:37;;;;;;;2.40;1.70;;;;;;;5.42;100.00;100915.34;106186;1262;59857;-60
2024/02/23 00:24:05;;;;;;;1.90;1.30;;;;;;;5.40;100.00;100909.83;105907;1263;73541;-60
2024/02/23 00:26:32;;;;;;;2.50;1.20;;;;;;;5.39;100.00;100908.94;105856;1262;65542;-59
2024/02/23 00:28:59;;;;;;;2.10;1.50;;;;;;;5.37;100.00;100905.23;105800;1262;72750;-58
2024/02/23 00:31:27;;;;;;;3.00;1.60;;;;;;;5.35;100.00;100903.29;105786;1259;60951;-58
2024/02/23 00:33:54;;;;;;;1.90;1.30;;;;;;;5.34;100.00;100897.80;105846;1263;59755;-59
2024/02/23 00:36:22;;;;;;;1.60;1.00;;;;;;;5.33;100.00;100894.60;105982;1262;72946;-59
2024/02/23 00:38:49;;;;;;;2.40;1.20;;;;;;;5.30;100.00;100893.01;106033;1260;67193;-57
2024/02/23 00:41:16;;;;;;;1.80;1.30;;;;;;;5.30;100.00;100885.53;105728;1262;71411;-59
2024/02/23 00:43:44;;;;;;;1.80;1.10;;;;;;;5.27;100.00;100886.08;105829;1257;60549;-59
2024/02/23 00:46:11;;;;;;;1.40;1.20;;;;;;;5.26;100.00;100883.45;105872;1263;60422;-59
2024/02/23 00:48:42;;;;;;;2.00;1.50;;;;;;;5.25;100.00;100880.42;106094;1257;72634;-57
2024/02/23 00:51:09;;;;;;;1.90;1.50;;;;;;;5.22;100.00;100882.04;105893;1262;65494;-58
2024/02/23 00:53:36;;;;;;;2.30;1.70;;;;;;;5.20;100.00;100879.02;105889;1260;72700;-58
2024/02/23 00:56:04;;;;;;;2.40;1.70;;;;;;;5.18;100.00;100876.02;105885;1261;61496;-59
2024/02/23 00:58:32;;;;;;;2.30;1.10;;;;;;;5.16;100.00;100879.44;105956;1263;60363;-58
2024/02/23 01:00:59;;;;;;;1.60;1.30;;;;;;;5.14;100.00;100875.17;105936;1270;72671;-58
2024/02/23 01:03:27;;;;;;;1.90;1.10;;;;;;;5.12;100.00;100872.52;106106;1257;66215;-60
2024/02/23 01:05:54;;;;;;;1.50;1.30;;;;;;;5.10;100.00;100871.84;106132;1260;72695;-59
2024/02/23 01:08:21;;;;;;;2.20;1.50;;;;;;;5.09;100.00;100869.17;106148;1254;60532;-60
2024/02/23 01:10:49;;;;;;;1.70;1.10;;;;;;;5.09;100.00;100865.98;106817;1253;61068;-59
2024/02/23 01:13:17;;;;;;;2.20;1.40;;;;;;;5.08;100.00;100862.60;106321;1257;73841;-59
2024/02/23 01:15:44;;;;;;;1.90;1.50;;;;;;;5.06;100.00;100858.88;106135;1254;66978;-58
2024/02/23 01:18:12;;;;;;;1.60;1.30;;;;;;;5.06;100.00;100853.89;106140;1253;71470;-58
2024/02/23 01:20:39;;;;;;;2.70;1.20;;;;;;;5.06;100.00;100848.38;106107;1257;60392;-58
2024/02/23 01:23:07;;;;;;;4.60;1.30;;;;;;;5.05;100.00;100847.31;106197;1254;61331;-59
2024/02/23 01:25:35;;;;;;;1.70;1.20;;;;;;;5.04;100.00;100846.96;107084;1259;72596;-59
2024/02/23 01:28:03;;;;;;;2.90;1.30;;;;;;;5.05;100.00;100842.70;106150;1257;65885;-59
2024/02/23 01:30:30;;;;;;;2.10;1.30;;;;;;;5.04;100.00;100842.34;106149;1254;71426;-57
2024/02/23 01:32:58;;;;;;;1.70;1.30;;;;;;;5.04;100.00;100837.71;106088;1259;60473;-59
2024/02/23 01:35:25;;;;;;;2.00;1.40;;;;;;;5.04;100.00;100837.35;106009;1259;60343;-58
2024/02/23 01:37:53;;;;;;;1.90;1.50;;;;;;;5.04;100.00;100836.65;106028;1258;71894;-58
2024/02/23 01:40:20;;;;;;;1.60;1.20;;;;;;;5.03;100.00;100832.38;106077;1259;67369;-57
2024/02/23 01:42:47;;;;;;;2.10;1.30;;;;;;;5.01;100.00;100826.38;106044;1260;72814;-58
2024/02/23 01:45:15;;;;;;;1.70;1.20;;;;;;;5.00;100.00;100822.47;106054;1255;62821;-60
2024/02/23 01:47:42;;;;;;;1.30;1.00;;;;;;;5.00;100.00;100821.23;105998;1259;60504;-59
2024/02/23 01:50:12;;;;;;;1.20;1.00;;;;;;;4.99;100.00;100817.66;105953;1261;73754;-59
2024/02/23 01:52:40;;;;;;;1.20;1.10;;;;;;;4.99;100.00;100817.49;106523;1254;65423;-58
2024/02/23 01:55:07;;;;;;;1.60;1.40;;;;;;;5.00;100.00;100825.48;106046;1257;72798;-59
2024/02/23 01:57:34;;;;;;;1.40;1.10;;;;;;;5.02;100.00;100826.36;106029;1258;59508;-60
2024/02/23 02:00:17;;;;;;;1.20;1.00;;;;;;;5.01;100.00;100834.90;105978;1258;60538;-59
2024/02/23 02:02:50;;;;;;;2.00;0.90;;;;;;;5.00;100.00;100825.13;106854;1262;72649;-59
2024/02/23 02:05:18;;;;;;;1.70;1.40;;;;;;;4.99;100.00;100824.42;108835;1256;67189;-59
2024/02/23 02:07:46;;;;;;;2.50;1.60;;;;;;;4.98;100.00;100819.27;109089;1256;71482;-58
2024/02/23 02:10:13;;;;;;;2.40;1.10;;;;;;;4.95;100.00;100812.70;107193;1256;61478;-59
2024/02/23 02:12:41;;;;;;;1.30;1.10;;;;;;;4.94;100.00;100806.32;106093;1259;61047;-58
2024/02/23 02:15:08;;;;;;;2.10;1.40;;;;;;;4.94;100.00;100805.59;106008;1258;74306;-59
2024/02/23 02:17:35;;;;;;;2.10;1.30;;;;;;;4.95;100.00;100800.08;105994;1256;66899;-59
2024/02/23 02:20:05;;;;;;;2.30;1.50;;;;;;;4.97;100.00;100802.73;108848;1254;71574;-59
2024/02/23 02:22:33;;;;;;;1.40;1.10;;;;;;;4.97;100.00;100798.11;108687;1256;59585;-58
2024/02/23 02:25:00;;;;;;;1.80;1.40;;;;;;;4.96;100.00;100789.58;109040;1254;61648;-58
2024/02/23 02:27:28;;;;;;;3.80;1.40;;;;;;;4.95;100.00;100788.15;108955;1254;76617;-59
2024/02/23 02:29:55;;;;;;;1.60;1.40;;;;;;;4.96;100.00;100783.53;107620;1258;65838;-59
2024/02/23 02:32:23;;;;;;;2.00;1.10;;;;;;;4.94;100.00;100776.24;105870;1261;71462;-58
2024/02/23 02:34:50;;;;;;;1.90;1.20;;;;;;;4.93;100.00;100773.26;109159;1253;60057;-59
2024/02/23 02:37:17;;;;;;;1.70;1.30;;;;;;;4.91;100.00;100773.63;109226;1253;59903;-59
2024/02/23 02:39:45;;;;;;;3.20;1.20;;;;;;;4.88;100.00;100770.27;109098;1254;72586;-58
2024/02/23 02:42:12;;;;;;;3.20;1.20;;;;;;;4.86;100.00;100773.30;107916;1258;67428;-60
2024/02/23 02:44:39;;;;;;;1.60;1.40;;;;;;;4.87;100.00;100771.34;106192;1256;73132;-56
2024/02/23 02:47:06;;;;;;;2.40;1.40;;;;;;;4.86;100.00;100768.85;106141;1259;60166;-56
2024/02/23 02:49:34;;;;;;;4.50;1.40;;;;;;;4.85;100.00;100769.73;106152;1259;60433;-55
2024/02/23 02:52:01;;;;;;;3.90;1.70;;;;;;;4.85;100.00;100777.39;106069;1257;72675;-57
2024/02/23 02:54:29;;;;;;;2.80;1.70;;;;;;;4.84;100.00;100776.17;106046;1254;68203;-58
2024/02/23 02:56:56;;;;;;;1.50;1.30;;;;;;;4.83;100.00;100775.83;106131;1258;72761;-59
2024/02/23 02:59:23;;;;;;;1.60;1.30;;;;;;;4.81;100.00;100771.23;106201;1254;60572;-58
2024/02/23 03:01:55;;;;;;;1.90;1.70;;;;;;;4.81;100.00;100773.00;106207;1260;60366;-57
2024/02/23 03:04:22;;;;;;;2.10;1.70;;;;;;;4.81;100.00;100768.20;106786;1259;72693;-56
2024/02/23 03:06:50;;;;;;;3.70;1.60;;;;;;;4.81;100.00;100767.48;106142;1252;66780;-60
2024/02/23 03:09:17;;;;;;;3.60;2.10;;;;;;;4.82;100.00;100768.02;106179;1253;73546;-56
2024/02/23 03:11:44;;;;;;;1.60;1.50;;;;;;;4.83;100.00;100770.86;106175;1254;61067;-57
2024/02/23 03:14:12;;;;;;;2.40;1.60;;;;;;;4.84;100.00;100769.77;106082;1257;60572;-55
2024/02/23 03:16:39;;;;;;;3.60;2.30;;;;;;;4.86;100.00;100772.23;106339;1253;73808;-57
2024/02/23 03:19:07;;;;;;;1.70;1.40;;;;;;;4.87;100.00;100773.11;106096;1259;67430;-57
2024/02/23 03:21:35;;;;;;;2.00;1.70;;;;;;;4.89;100.00;100774.17;106127;1257;71426;-61
2024/02/23 03:24:06;;;;;;;2.80;2.30;;;;;;;4.90;100.00;100775.94;106128;1258;60454;-58
2024/02/23 03:26:33;;;;;;;2.40;1.60;;;;;;;4.90;100.00;100775.41;106175;1254;60875;-58
2024/02/23 03:29:00;;;;;;;3.00;2.20;;;;;;;4.90;100.00;100777.90;106103;1255;72612;-55
2024/02/23 03:31:28;;;;;;;3.00;2.50;;;;;;;4.88;100.00;100773.29;106114;1254;66748;-59
2024/02/23 03:33:56;;;;;;;3.40;1.80;;;;;;;4.86;100.00;100769.92;106538;1254;74693;-57
2024/02/23 03:36:23;;;;;;;2.10;1.60;;;;;;;4.84;100.00;100767.99;106107;1267;61013;-56
2024/02/23 03:38:50;;;;;;;2.70;1.40;;;;;;;4.83;100.00;100767.65;106118;1255;60396;-57
2024/02/23 03:41:18;;;;;;;2.20;2.00;;;;;;;4.83;100.00;100764.10;106070;1258;73835;-56
2024/02/23 03:43:45;;;;;;;2.70;1.60;;;;;;;4.84;100.00;100766.23;106074;1259;68590;-57
2024/02/23 03:46:14;;;;;;;2.50;1.60;;;;;;;4.84;100.00;100765.86;106128;1253;71122;-60
2024/02/23 03:48:42;;;;;;;1.60;1.30;;;;;;;4.86;100.00;100763.34;106004;1259;61410;-56
2024/02/23 03:51:09;;;;;;;1.80;1.40;;;;;;;4.87;100.00;100763.86;106122;1260;59652;-56
2024/02/23 03:53:36;;;;;;;2.30;1.50;;;;;;;4.88;100.00;100761.55;106110;1257;72634;-60
2024/02/23 03:56:04;;;;;;;2.20;1.70;;;;;;;4.90;100.00;100760.11;106027;1259;65988;-57
2024/02/23 03:58:31;;;;;;;2.20;2.00;;;;;;;4.90;100.00;100754.78;106953;1254;71487;-62
2024/02/23 04:00:59;;;;;;;1.60;1.40;;;;;;;4.89;100.00;100750.70;106118;1255;60581;-59
2024/02/23 04:03:26;;;;;;;2.80;1.90;;;;;;;4.87;100.00;100745.54;106075;1259;60091;-56
2024/02/23 04:05:53;;;;;;;2.30;1.70;;;;;;;4.85;100.00;100740.59;105988;1253;72959;-59
2024/02/23 04:08:21;;;;;;;1.60;1.30;;;;;;;4.83;100.00;100743.29;106337;1257;65925;-58
2024/02/23 04:10:48;;;;;;;1.80;1.30;;;;;;;4.83;100.00;100739.91;106558;1254;71442;-60
2024/02/23 04:13:17;;;;;;;2.20;1.60;;;;;;;4.83;100.00;100739.02;106542;1260;61495;-56
2024/02/23 04:15:45;;;;;;;2.10;1.50;;;;;;;4.82;100.00;100734.58;106493;1258;61362;-56
2024/02/23 04:18:12;;;;;;;1.70;1.40;;;;;;;4.82;100.00;100732.27;106067;1268;74322;-58
2024/02/23 04:20:39;;;;;;;1.40;1.30;;;;;;;4.81;100.00;100732.98;106139;1257;65811;-58
2024/02/23 04:23:07;;;;;;;3.20;1.80;;;;;;;4.82;100.00;100733.16;106127;1255;73227;-56
2024/02/23 04:25:34;;;;;;;2.20;1.90;;;;;;;4.82;100.00;100736.36;106111;1260;60397;-57
2024/02/23 04:28:02;;;;;;;2.00;1.60;;;;;;;4.83;100.00;100740.98;106108;1261;61171;-55
2024/02/23 04:30:29;;;;;;;2.00;1.80;;;;;;;4.83;100.00;100741.15;106144;1258;72640;-56
2024/02/23 04:32:56;;;;;;;2.10;1.70;;;;;;;4.83;100.00;100741.87;106145;1257;67088;-57
2024/02/23 04:35:23;;;;;;;2.00;1.60;;;;;;;4.82;100.00;100742.05;106138;1254;70865;-57
2024/02/23 04:37:51;;;;;;;3.10;1.60;;;;;;;4.82;100.00;100740.63;106063;1255;61188;-56
2024/02/23 04:40:18;;;;;;;2.50;1.70;;;;;;;4.83;100.00;100740.98;106109;1259;60492;-60
2024/02/23 04:42:47;;;;;;;3.20;1.70;;;;;;;4.84;100.00;100747.71;106076;1258;72669;-54
2024/02/23 04:45:14;;;;;;;2.60;2.00;;;;;;;4.85;100.00;100746.09;106211;1259;65093;-56
2024/02/23 04:47:42;;;;;;;1.80;1.40;;;;;;;4.86;100.00;100751.60;106145;1260;72941;-61
2024/02/23 04:50:10;;;;;;;2.20;2.00;;;;;;;4.88;100.00;100752.30;106524;1258;61191;-60
2024/02/23 04:52:37;;;;;;;1.80;1.60;;;;;;;4.89;100.00;100751.05;106130;1255;60535;-58
2024/02/23 04:55:05;;;;;;;3.20;2.00;;;;;;;4.91;100.00;100761.89;106136;1260;73857;-61
2024/02/23 04:57:32;;;;;;;2.30;1.60;;;;;;;4.91;100.00;100758.50;106183;1257;67365;-56
2024/02/23 04:59:59;;;;;;;2.80;1.80;;;;;;;4.91;100.00;100757.98;106175;1253;72710;-57
2024/02/23 05:02:29;;;;;;;2.30;1.60;;;;;;;4.92;100.00;100756.20;106154;1259;62447;-56
2024/02/23 05:04:57;;;;;;;4.20;1.90;;;;;;;4.91;100.00;100753.35;107864;1259;61330;-57
2024/02/23 05:07:24;;;;;;;2.50;2.30;;;;;;;4.91;100.00;100758.51;106811;1259;72018;-58
2024/02/23 05:09:52;;;;;;;2.70;1.90;;;;;;;4.91;100.00;100757.63;106161;1260;67459;-55
2024/02/23 05:12:19;;;;;;;2.90;1.50;;;;;;;4.92;100.00;100759.20;106186;1254;71806;-58
2024/02/23 05:14:46;;;;;;;2.30;2.10;;;;;;;4.93;100.00;100762.75;106057;1260;61016;-56
2024/02/23 05:17:13;;;;;;;1.90;1.60;;;;;;;4.94;100.00;100763.62;106203;1259;60501;-57
2024/02/23 05:19:41;;;;;;;1.50;1.30;;;;;;;4.98;100.00;100766.63;109116;1253;73985;-55
2024/02/23 05:22:08;;;;;;;3.50;1.40;;;;;;;5.01;100.00;100770.15;108975;1257;66056;-58
2024/02/23 05:24:36;;;;;;;1.60;1.50;;;;;;;5.04;100.00;100769.04;106072;1260;70455;-58
2024/02/23 05:27:03;;;;;;;2.70;1.90;;;;;;;5.06;100.00;100775.25;106176;1267;60525;-56
2024/02/23 05:29:30;;;;;;;1.60;1.50;;;;;;;5.05;100.00;100772.77;106340;1257;60497;-57
2024/02/23 05:31:59;;;;;;;3.70;2.30;;;;;;;5.04;100.00;100773.84;106151;1254;72733;-60
2024/02/23 05:34:30;;;;;;;2.30;2.10;;;;;;;5.04;100.00;100778.12;106147;1259;69604;-56
2024/02/23 05:36:57;;;;;;;4.40;1.80;;;;;;;5.04;100.00;100782.20;109018;1257;71467;-59
2024/02/23 05:39:24;;;;;;;1.70;1.60;;;;;;;5.04;100.00;100789.14;107382;1254;60909;-56
2024/02/23 05:41:52;;;;;;;2.60;1.70;;;;;;;5.05;100.00;100789.86;106151;1258;60514;-56
2024/02/23 05:44:19;;;;;;;4.10;2.50;;;;;;;5.06;100.00;100794.65;106369;1257;73358;-57
2024/02/23 05:46:46;;;;;;;2.50;1.80;;;;;;;5.07;100.00;100796.24;106458;1259;65640;-56
2024/02/23 05:49:14;;;;;;;2.90;1.80;;;;;;;5.08;100.00;100796.41;106315;1260;70801;-56
2024/02/23 05:51:41;;;;;;;2.10;1.90;;;;;;;5.09;100.00;100799.44;106127;1260;60435;-59
2024/02/23 05:54:09;;;;;;;3.40;2.50;;;;;;;5.09;100.00;100796.41;106248;1260;60704;-55
2024/02/23 05:56:37;;;;;;;2.60;1.80;;;;;;;5.09;100.00;100799.08;106111;1267;73919;-55
2024/02/23 05:59:06;;;;;;;2.30;2.10;;;;;;;5.09;100.00;100807.44;106919;1259;67075;-57
2024/02/23 06:01:33;;;;;;;2.70;2.40;;;;;;;5.08;100.00;100805.84;106063;1257;72717;-56
2024/02/23 06:04:00;;;;;;;2.70;2.30;;;;;;;5.07;100.00;100807.10;106066;1260;60981;-57
2024/02/23 06:06:28;;;;;;;3.50;2.50;;;;;;;5.07;100.00;100810.65;106097;1259;60745;-59
2024/02/23 06:08:56;;;;;;;2.70;2.30;;;;;;;5.06;100.00;100813.86;106398;1257;73840;-57
2024/02/23 06:11:23;;;;;;;2.40;2.20;;;;;;;5.08;100.00;100816.88;106179;1258;66047;-55
2024/02/23 06:13:51;;;;;;;2.30;2.10;;;;;;;5.09;100.00;100818.65;106093;1258;72712;-59
2024/02/23 06:16:18;;;;;;;2.50;2.30;;;;;;;5.11;100.00;100825.03;106103;1256;60476;-57
2024/02/23 06:18:45;;;;;;;3.20;3.00;;;;;;;5.13;100.00;100823.94;106151;1256;60358;-55
2024/02/23 06:21:17;;;;;;;2.50;2.30;;;;;;;5.14;100.00;100827.48;106065;1260;73955;-56
2024/02/23 06:23:44;;;;;;;4.80;2.90;;;;;;;5.15;100.00;100832.64;106175;1260;66779;-55
2024/02/23 06:26:12;;;;;;;2.70;2.50;;;;;;;5.16;100.00;100830.50;107829;1259;71257;-61
2024/02/23 06:28:41;;;;;;;3.00;2.70;;;;;;;5.16;100.00;100828.36;106064;1259;60493;-56
2024/02/23 06:31:09;;;;;;;4.30;3.40;;;;;;;5.17;100.00;100835.65;106424;1257;60491;-57
2024/02/23 06:33:36;;;;;;;4.30;3.20;;;;;;;5.16;100.00;100829.61;106145;1259;73829;-56
2024/02/23 06:36:04;;;;;;;4.00;3.60;;;;;;;5.16;100.00;100825.16;106277;1258;66260;-57
2024/02/23 06:38:32;;;;;;;5.00;2.80;;;;;;;5.18;100.00;100823.55;106034;1264;73378;-57
2024/02/23 06:40:59;;;;;;;3.10;2.90;;;;;;;5.19;100.00;100819.96;107274;1257;61279;-54
2024/02/23 06:43:27;;;;;;;4.10;3.80;;;;;;;5.21;100.00;100823.50;106176;1254;60516;-58
2024/02/23 06:45:54;;;;;;;3.60;3.30;;;;;;;5.23;100.00;100819.75;106124;1260;75520;-57
2024/02/23 06:48:24;;;;;;;3.40;3.00;;;;;;;5.25;100.00;100819.02;106114;1258;65552;-59
2024/02/23 06:50:57;;;;;;;5.00;4.30;;;;;;;5.27;100.00;100824.52;106359;1257;72057;-55
2024/02/23 06:53:24;;;;;;;3.10;2.80;;;;;;;5.30;100.00;100822.89;106215;1254;60754;-55
2024/02/23 06:55:52;;;;;;;4.10;3.80;;;;;;;5.32;100.00;100825.00;106113;1254;60459;-56
2024/02/23 06:58:19;;;;;;;5.20;3.80;;;;;;;5.33;100.00;100825.17;105989;1254;74399;-59
2024/02/23 07:00:47;;;;;;;3.90;3.60;;;;;;;5.36;100.00;100820.34;106156;1254;65596;-58
2024/02/23 07:03:15;;;;;;;4.80;4.00;;;;;;;5.38;100.00;100821.56;106131;1258;72769;-60
2024/02/23 07:05:42;;;;;;;4.80;4.40;;;;;;;5.39;100.00;100826.54;106013;1258;61117;-55
2024/02/23 07:08:10;;;;;;;4.40;4.00;;;;;;;5.40;100.00;100833.46;106181;1257;61181;-57
2024/02/23 07:10:37;;;;;;;3.30;3.00;;;;;;;5.41;100.00;100835.23;106294;1267;72729;-56
2024/02/23 07:13:05;;;;;;;4.90;4.30;;;;;;;5.42;100.00;100834.17;105999;1254;67452;-57
2024/02/23 07:15:35;;;;;;;3.60;2.70;;;;;;;5.44;100.00;100838.42;106063;1265;71436;-54
2024/02/23 07:18:03;;;;;;;4.10;3.70;;;;;;;5.47;100.00;100844.61;106740;1254;62138;-59
2024/02/23 07:20:31;;;;;;;4.20;3.50;;;;;;;5.48;100.00;100845.84;106244;1259;61235;-58
2024/02/23 07:22:59;;;;;;;5.40;3.80;;;;;;;5.51;100.00;100848.32;106100;1260;75142;-55
2024/02/23 07:25:26;;;;;;;4.20;3.80;;;;;;;5.53;100.00;100855.05;106125;1260;65228;-56
2024/02/23 07:27:53;;;;;;;4.40;4.00;;;;;;;5.54;100.00;100858.77;106114;1257;72042;-59
2024/02/23 07:30:21;;;;;;;5.70;5.20;;;;;;;5.55;100.00;100858.77;106029;1260;61767;-60
2024/02/23 07:32:48;;;;;;;4.00;3.60;;;;;;;5.56;100.00;100858.94;106069;1258;61602;-58
2024/02/23 07:35:19;;;;;;;4.30;3.90;;;;;;;5.56;100.00;100865.70;107624;1257;74783;-56
2024/02/23 07:37:47;;;;;;;3.60;3.30;;;;;;;5.55;100.00;100868.20;106175;1255;66611;-58
2024/02/23 07:40:15;;;;;;;7.80;3.70;;;;;;;5.54;100.00;100869.80;106003;1260;71445;-57
2024/02/23 07:42:47;;;;;;;3.50;3.20;;;;;;;5.54;100.00;100876.39;105976;1259;61805;-58
2024/02/23 07:45:14;;;;;;;3.70;3.30;;;;;;;5.56;100.00;100877.62;106055;1254;62459;-57
2024/02/23 07:47:41;;;;;;;4.50;3.80;;;;;;;5.58;100.00;100874.41;106030;1254;72019;-58
2024/02/23 07:50:09;;;;;;;3.30;3.00;;;;;;;5.59;100.00;100876.18;106079;1261;66214;-57
2024/02/23 07:52:38;;;;;;;4.20;3.80;;;;;;;5.61;100.00;100877.05;108097;1255;70526;-60
2024/02/23 07:55:06;;;;;;;4.80;3.90;;;;;;;5.63;100.00;100883.60;106821;1254;61457;-53
2024/02/23 07:57:34;;;;;;;4.00;3.60;;;;;;;5.64;100.00;100883.06;106390;1260;61064;-57
2024/02/23 08:00:04;;;;;;;3.40;3.20;;;;;;;5.63;100.00;100883.06;106182;1258;72005;-55
2024/02/23 08:02:38;;;;;;;4.10;3.60;;;;;;;5.62;100.00;100894.84;106178;1254;68215;-54
2024/02/23 08:05:07;;;;;;;6.60;2.90;;;;;;;5.61;100.00;100885.40;106332;1260;72695;-54
2024/02/23 08:07:34;;;;;;;3.20;2.90;;;;;;;5.62;100.00;100887.53;106224;1253;61952;-59
2024/02/23 08:10:04;;;;;;;6.40;3.60;;;;;;;5.63;100.00;100884.67;105962;1257;60300;-60
2024/02/23 08:12:32;;;;;;;2.70;2.50;;;;;;;5.64;100.00;100894.81;108533;1254;73988;-56
2024/02/23 08:15:01;;;;;;;3.80;2.90;;;;;;;5.65;100.00;100893.20;106242;1257;66126;-55
2024/02/23 08:17:28;;;;;;;3.90;3.50;;;;;;;5.66;100.00;100900.69;106065;1260;73205;-58
2024/02/23 08:19:56;;;;;;;4.40;3.50;;;;;;;5.67;100.00;100910.83;108858;1254;58252;-59
2024/02/23 08:22:23;;;;;;;3.00;2.70;;;;;;;5.68;100.00;100908.86;107713;1257;59683;-56
2024/02/23 08:24:51;;;;;;;3.70;3.30;;;;;;;5.68;100.00;100908.50;106039;1254;73941;-57
2024/02/23 08:27:18;;;;;;;6.20;3.50;;;;;;;5.67;100.00;100911.71;106069;1254;64831;-56
2024/02/23 08:29:46;;;;;;;3.50;3.20;;;;;;;5.68;100.00;100916.34;106040;1257;72397;-59
2024/02/23 08:32:13;;;;;;;4.20;3.70;;;;;;;5.68;100.00;100913.14;105977;1259;60527;-58
2024/02/23 08:34:41;;;;;;;5.90;3.40;;;;;;;5.66;100.00;100911.19;106404;1254;60428;-55
2024/02/23 08:37:08;;;;;;;4.60;3.70;;;;;;;5.64;100.00;100907.45;106053;1257;74275;-57
2024/02/23 08:39:36;;;;;;;2.70;2.50;;;;;;;5.65;100.00;100909.77;108778;1253;67254;-55
2024/02/23 08:42:04;;;;;;;4.40;3.80;;;;;;;5.66;100.00;100912.61;108931;1254;72908;-56
2024/02/23 08:44:31;;;;;;;4.40;2.50;;;;;;;5.67;100.00;100909.95;108793;1253;60450;-57
2024/02/23 08:46:59;;;;;;;4.90;3.90;;;;;;;5.68;100.00;100910.46;107986;1257;60550;-61
2024/02/23 08:51:40;;;;;;;5.10;4.70;;;;;;;5.70;100.00;101004.66;102591;1294;600595;-53
2024/02/23 08:54:08;;;;;;;5.40;4.70;;;;;;;5.69;100.00;101058.08;105290;1273;61134;-55
2024/02/23 08:56:42;;;;;;;5.60;5.10;;;;;;;5.70;100.00;101038.64;105143;1270;59842;-53
2024/02/23 08:59:10;;;;;;;4.80;4.40;;;;;;;5.70;100.00;101027.61;105028;1276;72297;-55
2024/02/23 09:01:37;;;;;;;5.10;4.60;;;;;;;5.70;100.00;101014.77;105070;1269;65762;-54
2024/02/23 09:04:04;;;;;;;9.10;6.10;;;;;;;5.71;100.00;101005.16;105128;1269;71604;-58
2024/02/23 09:06:32;;;;;;;8.50;7.20;;;;;;;5.71;100.00;101001.07;105632;1266;60236;-57
2024/02/23 09:09:05;;;;;;;9.30;6.20;;;;;;;5.73;100.00;101002.13;105291;1271;60034;-58
2024/02/23 09:11:32;;;;;;;9.20;7.40;;;;;;;5.74;100.00;101000.34;105192;1267;70711;-57
2024/02/23 09:14:00;;;;;;;22.40;14.00;;;;;;;5.75;100.00;100994.98;105231;1271;66183;-56
2024/02/23 09:16:27;;;;;;;10.70;9.60;;;;;;;5.78;100.00;100994.98;105108;1267;73800;-55
2024/02/23 09:18:55;;;;;;;8.90;8.00;;;;;;;5.80;100.00;100992.44;105210;1267;61258;-55
2024/02/23 09:21:22;;;;;;;10.00;8.90;;;;;;;5.82;100.00;100986.19;107688;1267;60702;-55
2024/02/23 09:23:49;;;;;;;12.50;11.00;;;;;;;5.84;100.00;100989.56;105271;1282;73298;-59
2024/02/23 09:26:17;;;;;;;11.60;9.30;;;;;;;5.86;100.00;100990.61;105227;1270;65792;-56
2024/02/23 09:28:45;;;;;;;10.40;9.40;;;;;;;5.89;100.00;100993.10;105219;1281;72005;-57
2024/02/23 09:31:12;;;;;;;20.10;18.10;;;;;;;5.90;100.00;100994.16;105309;1267;59661;-59
2024/02/23 09:33:40;;;;;;;10.60;9.60;;;;;;;5.92;100.00;100996.83;105450;1262;61437;-58
2024/02/23 09:36:09;;;;;;;8.80;7.70;;;;;;;5.95;100.00;100995.91;106064;1264;71124;-58
2024/02/23 09:38:37;;;;;;;6.50;5.90;;;;;;;5.97;100.00;101001.75;105951;1263;67631;-56
2024/02/23 09:41:06;;;;;;;7.10;6.40;;;;;;;5.99;100.00;101001.73;105838;1266;72744;-56
2024/02/23 09:43:33;;;;;;;6.20;5.70;;;;;;;6.00;100.00;101002.63;105236;1270;60480;-56
2024/02/23 09:46:00;;;;;;;6.50;5.90;;;;;;;6.01;100.00;101004.21;105327;1264;60076;-56
2024/02/23 09:48:28;;;;;;;6.60;5.80;;;;;;;6.03;100.00;101004.20;105342;1280;73123;-58
2024/02/23 09:50:56;;;;;;;6.50;5.50;;;;;;;6.03;100.00;101010.08;105337;1267;64908;-56
2024/02/23 09:53:24;;;;;;;7.70;6.10;;;;;;;6.06;100.00;101006.83;105306;1266;71482;-56
2024/02/23 09:55:51;;;;;;;6.30;5.40;;;;;;;6.09;100.00;101007.17;105397;1265;64962;-56
2024/02/23 09:58:19;;;;;;;10.60;7.70;;;;;;;6.10;100.00;101000.04;105449;1267;59992;-55
2024/02/23 10:00:47;;;;;;;9.30;8.30;;;;;;;6.12;100.00;101002.34;105356;1263;73102;-55
2024/02/23 10:03:14;;;;;;;24.00;21.40;;;;;;;6.15;100.00;101001.93;105338;1268;65504;-55
2024/02/23 10:05:43;;;;;;;17.80;16.00;;;;;;;6.18;100.00;101003.52;105307;1271;72787;-57
2024/02/23 10:08:10;;;;;;;16.70;14.20;;;;;;;6.22;100.00;101005.44;105414;1263;63395;-60
2024/02/23 10:10:38;;;;;;;13.40;12.20;;;;;;;6.27;100.00;101009.48;106185;1263;59701;-58
2024/02/23 10:13:06;;;;;;;13.90;12.40;;;;;;;6.31;100.00;101007.27;105507;1264;72190;-56
2024/02/23 10:15:34;;;;;;;16.50;13.80;;;;;;;6.34;100.00;101012.25;105634;1264;66078;-55
2024/02/23 10:18:01;;;;;;;13.40;12.00;;;;;;;6.34;100.00;101011.89;105263;1267;72752;-56
2024/02/23 10:20:29;;;;;;;18.40;15.20;;;;;;;6.33;100.00;101014.75;105408;1263;60163;-58
2024/02/23 10:22:56;;;;;;;13.20;11.10;;;;;;;6.32;100.00;101011.55;105540;1264;60496;-54
2024/02/23 10:25:24;;;;;;;12.00;9.60;;;;;;;6.32;100.00;101011.55;105419;1268;72172;-56
2024/02/23 10:27:51;;;;;;;11.80;9.60;;;;;;;6.33;100.00;101014.75;105466;1263;66007;-56
2024/02/23 10:30:18;;;;;;;9.00;7.00;;;;;;;6.34;100.00;101014.20;105350;1265;72759;-54
2024/02/23 10:32:46;;;;;;;8.90;6.90;;;;;;;6.37;100.00;101014.72;105393;1264;61782;-56
2024/02/23 10:35:14;;;;;;;14.20;11.50;;;;;;;6.40;100.00;101020.20;105376;1267;60633;-58
2024/02/23 10:37:43;;;;;;;9.80;8.80;;;;;;;6.44;100.00;101017.67;105395;1267;71868;-56
2024/02/23 10:40:12;;;;;;;10.30;9.10;;;;;;;6.47;100.00;101017.63;105606;1270;67765;-55
2024/02/23 10:42:40;;;;;;;9.00;8.00;;;;;;;6.49;100.00;101015.45;105995;1267;71132;-55
2024/02/23 10:45:08;;;;;;;9.30;6.80;;;;;;;6.52;100.00;101022.04;105251;1270;64444;-58
2024/02/23 10:47:36;;;;;;;7.30;6.60;;;;;;;6.55;100.00;101021.45;105259;1269;59809;-55
2024/02/23 10:50:05;;;;;;;6.70;6.10;;;;;;;6.58;100.00;101024.63;105879;1270;73085;-57
2024/02/23 10:52:32;;;;;;;10.00;8.80;;;;;;;6.61;100.00;101030.48;106052;1259;66746;-55
2024/02/23 10:55:00;;;;;;;13.40;10.70;;;;;;;6.66;100.00;101030.95;105790;1260;71483;-56
2024/02/23 10:57:28;;;;;;;18.20;14.60;;;;;;;6.70;100.00;101040.20;105923;1260;61426;-56
2024/02/23 10:59:55;;;;;;;21.10;18.80;;;;;;;6.72;100.00;101041.40;105679;1259;59611;-54
2024/02/23 11:02:22;;;;;;;14.90;13.40;;;;;;;6.76;100.00;101039.92;105516;1259;72968;-57
2024/02/23 11:04:50;;;;;;;32.40;22.10;;;;;;;6.77;100.00;101042.59;105880;1264;68065;-59
2024/02/23 11:07:22;;;;;;;40.40;23.40;;;;;;;6.78;100.00;101049.01;105855;1264;71461;-55
2024/02/23 11:09:52;;;;;;;73.80;47.10;;;;;;;6.79;100.00;101050.24;105707;1259;60498;-56
2024/02/23 11:12:25;;;;;;;109.40;76.50;;;;;;;6.81;100.00;101047.89;105949;1263;60470;-57
2024/02/23 11:14:57;;;;;;;37.60;27.10;;;;;;;6.82;100.00;101051.09;105873;1259;71346;-57
2024/02/23 11:17:26;;;;;;;35.70;21.20;;;;;;;6.84;100.00;101044.64;105702;1260;66991;-56
2024/02/23 11:19:54;;;;;;;38.90;26.10;;;;;;;6.85;100.00;101045.70;108532;1259;71498;-56